sensor_id;sensor_type;location;lat;lon;timestamp;temperature;humidity
55329;DHT22;41205;44.264;19.884;2022-12-10T00:01:43;333.50;2329.60
55329;DHT22;41205;44.264;19.884;2022-12-10T00:04:10;333.50;2329.60
55329;DHT22;41205;44.264;19.884;2022-12-10T00:06:37;333.40;2329.60
55329;DHT22;41205;44.264;19.884;2022-12-10T00:09:06;333.50;2329.60
55329;DHT22;41205;44.264;19.884;2022-12-10T00:11:32;333.40;2329.60
55329;DHT22;41205;44.264;19.884;2022-12-10T00:13:59;333.50;2329.60
55329;DHT22;41205;44.264;19.884;2022-12-10T00:16:26;333.40;2329.60
55329;DHT22;41205;44.264;19.884;2022-12-10T00:18:53;333.50;2329.60
55329;DHT22;41205;44.264;19.884;2022-12-10T00:21:28;333.50;2329.60
55329;DHT22;41205;44.264;19.884;2022-12-10T00:23:55;333.50;2329.60
55329;DHT22;41205;44.264;19.884;2022-12-10T00:28:52;333.50;2329.60
55329;DHT22;41205;44.264;19.884;2022-12-10T00:31:23;333.20;2329.60
55329;DHT22;41205;44.264;19.884;2022-12-10T00:33:49;333.20;2329.60
55329;DHT22;41205;44.264;19.884;2022-12-10T00:36:19;333.10;2329.60
55329;DHT22;41205;44.264;19.884;2022-12-10T00:38:45;333.20;2329.60
55329;DHT22;41205;44.264;19.884;2022-12-10T00:41:12;333.10;2329.60
55329;DHT22;41205;44.264;19.884;2022-12-10T00:43:39;333.00;2329.60
55329;DHT22;41205;44.264;19.884;2022-12-10T00:46:05;333.10;2329.60
55329;DHT22;41205;44.264;19.884;2022-12-10T00:48:31;333.20;2329.60
55329;DHT22;41205;44.264;19.884;2022-12-10T00:51:13;333.20;2329.60
55329;DHT22;41205;44.264;19.884;2022-12-10T00:53:40;333.10;2329.60
55329;DHT22;41205;44.264;19.884;2022-12-10T00:56:08;333.10;2329.60
55329;DHT22;41205;44.264;19.884;2022-12-10T00:58:35;333.10;2329.60
55329;DHT22;41205;44.264;19.884;2022-12-10T01:03:38;333.00;2329.60
55329;DHT22;41205;44.264;19.884;2022-12-10T01:06:14;333.00;2329.60
55329;DHT22;41205;44.264;19.884;2022-12-10T01:08:41;333.10;2329.60
55329;DHT22;41205;44.264;19.884;2022-12-10T01:11:07;333.10;2329.60
55329;DHT22;41205;44.264;19.884;2022-12-10T01:13:33;333.20;2329.60
55329;DHT22;41205;44.264;19.884;2022-12-10T01:16:03;333.20;2329.60
55329;DHT22;41205;44.264;19.884;2022-12-10T01:18:29;333.20;2329.60
55329;DHT22;41205;44.264;19.884;2022-12-10T01:20:55;333.30;2329.60
55329;DHT22;41205;44.264;19.884;2022-12-10T01:23:20;333.20;2329.60
55329;DHT22;41205;44.264;19.884;2022-12-10T01:25:46;333.10;2329.60
55329;DHT22;41205;44.264;19.884;2022-12-10T01:28:12;333.20;2329.60
55329;DHT22;41205;44.264;19.884;2022-12-10T01:30:37;333.20;2329.60
55329;DHT22;41205;44.264;19.884;2022-12-10T01:33:03;333.20;2329.60
55329;DHT22;41205;44.264;19.884;2022-12-10T01:35:29;333.20;2329.60
55329;DHT22;41205;44.264;19.884;2022-12-10T01:37:54;333.20;2329.60
55329;DHT22;41205;44.264;19.884;2022-12-10T01:40:20;333.20;2329.60
55329;DHT22;41205;44.264;19.884;2022-12-10T01:42:46;333.20;2329.60
55329;DHT22;41205;44.264;19.884;2022-12-10T01:45:12;333.20;2329.60
55329;DHT22;41205;44.264;19.884;2022-12-10T01:47:38;333.20;2329.60
55329;DHT22;41205;44.264;19.884;2022-12-10T01:50:06;333.10;2329.60
55329;DHT22;41205;44.264;19.884;2022-12-10T01:52:32;333.10;2329.60
55329;DHT22;41205;44.264;19.884;2022-12-10T01:54:58;333.10;2329.60
55329;DHT22;41205;44.264;19.884;2022-12-10T01:57:25;333.10;2329.60
55329;DHT22;41205;44.264;19.884;2022-12-10T02:00:00;333.00;2329.60
55329;DHT22;41205;44.264;19.884;2022-12-10T02:13:42;333.00;2329.60
55329;DHT22;41205;44.264;19.884;2022-12-10T02:16:15;332.90;2329.60
55329;DHT22;41205;44.264;19.884;2022-12-10T02:18:49;332.90;2329.60
55329;DHT22;41205;44.264;19.884;2022-12-10T02:21:23;333.00;2329.60
55329;DHT22;41205;44.264;19.884;2022-12-10T02:23:54;333.00;2329.60
55329;DHT22;41205;44.264;19.884;2022-12-10T02:26:43;332.90;2329.60
55329;DHT22;41205;44.264;19.884;2022-12-10T02:29:21;307.90;2304.00
55329;DHT22;41205;44.264;19.884;2022-12-10T02:31:54;307.80;2304.00
55329;DHT22;41205;44.264;19.884;2022-12-10T02:34:23;307.80;2304.00
55329;DHT22;41205;44.264;19.884;2022-12-10T02:36:52;307.80;2304.00
55329;DHT22;41205;44.264;19.884;2022-12-10T02:39:22;307.80;2304.00
55329;DHT22;41205;44.264;19.884;2022-12-10T02:41:54;307.80;2304.00
55329;DHT22;41205;44.264;19.884;2022-12-10T02:44:21;307.80;2304.00
55329;DHT22;41205;44.264;19.884;2022-12-10T02:46:51;308.00;2304.00
55329;DHT22;41205;44.264;19.884;2022-12-10T02:49:18;332.90;2329.60
55329;DHT22;41205;44.264;19.884;2022-12-10T02:51:43;333.20;2329.60
55329;DHT22;41205;44.264;19.884;2022-12-10T02:54:39;333.40;2329.60
55329;DHT22;41205;44.264;19.884;2022-12-10T02:57:14;333.10;2329.60
55329;DHT22;41205;44.264;19.884;2022-12-10T03:00:12;308.10;2304.00
55329;DHT22;41205;44.264;19.884;2022-12-10T03:05:23;332.80;2329.60
55329;DHT22;41205;44.264;19.884;2022-12-10T03:07:55;308.10;2304.00
55329;DHT22;41205;44.264;19.884;2022-12-10T03:12:58;333.20;2329.60
55329;DHT22;41205;44.264;19.884;2022-12-10T03:15:26;333.30;2329.60
55329;DHT22;41205;44.264;19.884;2022-12-10T03:17:53;333.30;2329.60
55329;DHT22;41205;44.264;19.884;2022-12-10T03:20:22;333.30;2329.60
55329;DHT22;41205;44.264;19.884;2022-12-10T03:22:49;333.40;2329.60
55329;DHT22;41205;44.264;19.884;2022-12-10T03:25:19;333.40;2329.60
55329;DHT22;41205;44.264;19.884;2022-12-10T03:27:49;333.40;2329.60
55329;DHT22;41205;44.264;19.884;2022-12-10T03:30:16;333.70;2329.60
55329;DHT22;41205;44.264;19.884;2022-12-10T03:32:43;358.70;2329.60
55329;DHT22;41205;44.264;19.884;2022-12-10T03:35:10;358.70;2329.60
55329;DHT22;41205;44.264;19.884;2022-12-10T03:37:36;358.60;2329.60
55329;DHT22;41205;44.264;19.884;2022-12-10T03:40:04;358.50;2329.60
55329;DHT22;41205;44.264;19.884;2022-12-10T03:42:30;358.50;2329.60
55329;DHT22;41205;44.264;19.884;2022-12-10T03:44:56;358.40;2329.60
55329;DHT22;41205;44.264;19.884;2022-12-10T03:47:22;358.40;2329.60
55329;DHT22;41205;44.264;19.884;2022-12-10T03:49:48;358.50;2329.60
55329;DHT22;41205;44.264;19.884;2022-12-10T03:52:14;358.40;2329.60
55329;DHT22;41205;44.264;19.884;2022-12-10T03:54:41;358.40;2329.60
55329;DHT22;41205;44.264;19.884;2022-12-10T03:57:07;358.40;2329.60
55329;DHT22;41205;44.264;19.884;2022-12-10T03:59:32;358.40;2329.60
55329;DHT22;41205;44.264;19.884;2022-12-10T04:01:58;358.50;2329.60
55329;DHT22;41205;44.264;19.884;2022-12-10T04:04:24;358.50;2329.60
55329;DHT22;41205;44.264;19.884;2022-12-10T04:06:49;358.50;2329.60
55329;DHT22;41205;44.264;19.884;2022-12-10T04:09:16;358.50;2329.60
55329;DHT22;41205;44.264;19.884;2022-12-10T04:11:42;358.50;2329.60
55329;DHT22;41205;44.264;19.884;2022-12-10T04:14:10;358.60;2329.60
55329;DHT22;41205;44.264;19.884;2022-12-10T04:16:54;358.70;2329.60
55329;DHT22;41205;44.264;19.884;2022-12-10T04:19:20;358.70;2329.60
55329;DHT22;41205;44.264;19.884;2022-12-10T04:21:46;358.70;2329.60
55329;DHT22;41205;44.264;19.884;2022-12-10T04:24:33;358.80;2329.60
55329;DHT22;41205;44.264;19.884;2022-12-10T04:27:21;358.80;2329.60
55329;DHT22;41205;44.264;19.884;2022-12-10T04:29:47;358.80;2329.60
55329;DHT22;41205;44.264;19.884;2022-12-10T04:32:13;358.70;2329.60
55329;DHT22;41205;44.264;19.884;2022-12-10T04:34:39;358.70;2329.60
55329;DHT22;41205;44.264;19.884;2022-12-10T04:37:05;358.70;2329.60
55329;DHT22;41205;44.264;19.884;2022-12-10T04:39:31;358.70;2329.60
55329;DHT22;41205;44.264;19.884;2022-12-10T04:41:57;358.70;2329.60
55329;DHT22;41205;44.264;19.884;2022-12-10T04:44:24;358.70;2329.60
55329;DHT22;41205;44.264;19.884;2022-12-10T04:46:49;358.70;2329.60
55329;DHT22;41205;44.264;19.884;2022-12-10T04:49:15;358.80;2329.60
55329;DHT22;41205;44.264;19.884;2022-12-10T04:51:41;358.90;2329.60
55329;DHT22;41205;44.264;19.884;2022-12-10T04:54:07;358.90;2329.60
55329;DHT22;41205;44.264;19.884;2022-12-10T04:56:33;359.00;2329.60
55329;DHT22;41205;44.264;19.884;2022-12-10T04:59:00;359.00;2329.60
55329;DHT22;41205;44.264;19.884;2022-12-10T05:01:26;359.00;2329.60
55329;DHT22;41205;44.264;19.884;2022-12-10T05:03:52;359.10;2329.60
55329;DHT22;41205;44.264;19.884;2022-12-10T05:06:19;359.20;2329.60
55329;DHT22;41205;44.264;19.884;2022-12-10T05:08:45;359.20;2329.60
55329;DHT22;41205;44.264;19.884;2022-12-10T05:11:17;359.20;2329.60
55329;DHT22;41205;44.264;19.884;2022-12-10T05:13:44;359.10;2329.60
55329;DHT22;41205;44.264;19.884;2022-12-10T05:16:12;358.90;2329.60
55329;DHT22;41205;44.264;19.884;2022-12-10T05:18:38;358.80;2329.60
55329;DHT22;41205;44.264;19.884;2022-12-10T05:21:06;358.70;2329.60
55329;DHT22;41205;44.264;19.884;2022-12-10T05:23:33;358.70;2329.60
55329;DHT22;41205;44.264;19.884;2022-12-10T05:26:18;358.90;2329.60
55329;DHT22;41205;44.264;19.884;2022-12-10T05:28:55;359.10;2329.60
55329;DHT22;41205;44.264;19.884;2022-12-10T05:31:22;359.30;2329.60
55329;DHT22;41205;44.264;19.884;2022-12-10T05:33:48;359.30;2329.60
55329;DHT22;41205;44.264;19.884;2022-12-10T05:36:16;359.30;2329.60
55329;DHT22;41205;44.264;19.884;2022-12-10T05:38:43;384.00;2329.60
55329;DHT22;41205;44.264;19.884;2022-12-10T05:41:15;384.10;2329.60
55329;DHT22;41205;44.264;19.884;2022-12-10T05:43:42;384.30;2329.60
55329;DHT22;41205;44.264;19.884;2022-12-10T05:46:29;384.30;2329.60
55329;DHT22;41205;44.264;19.884;2022-12-10T05:48:55;384.40;2329.60
55329;DHT22;41205;44.264;19.884;2022-12-10T05:51:23;384.60;2329.60
55329;DHT22;41205;44.264;19.884;2022-12-10T05:53:50;384.60;2329.60
55329;DHT22;41205;44.264;19.884;2022-12-10T05:56:18;384.50;2329.60
55329;DHT22;41205;44.264;19.884;2022-12-10T05:58:46;384.40;2329.60
55329;DHT22;41205;44.264;19.884;2022-12-10T06:01:20;384.30;2329.60
55329;DHT22;41205;44.264;19.884;2022-12-10T06:03:46;384.20;2329.60
55329;DHT22;41205;44.264;19.884;2022-12-10T06:06:12;384.20;2329.60
55329;DHT22;41205;44.264;19.884;2022-12-10T06:08:38;384.10;2329.60
55329;DHT22;41205;44.264;19.884;2022-12-10T06:11:06;384.10;2329.60
55329;DHT22;41205;44.264;19.884;2022-12-10T06:13:32;384.10;2329.60
55329;DHT22;41205;44.264;19.884;2022-12-10T06:15:58;384.10;2329.60
55329;DHT22;41205;44.264;19.884;2022-12-10T06:18:24;384.10;2329.60
55329;DHT22;41205;44.264;19.884;2022-12-10T06:20:50;384.10;2329.60
55329;DHT22;41205;44.264;19.884;2022-12-10T06:23:16;384.10;2329.60
55329;DHT22;41205;44.264;19.884;2022-12-10T06:25:42;384.10;2329.60
55329;DHT22;41205;44.264;19.884;2022-12-10T06:28:08;384.00;2329.60
55329;DHT22;41205;44.264;19.884;2022-12-10T06:30:34;359.30;2329.60
55329;DHT22;41205;44.264;19.884;2022-12-10T06:33:00;359.20;2329.60
55329;DHT22;41205;44.264;19.884;2022-12-10T06:35:26;359.10;2329.60
55329;DHT22;41205;44.264;19.884;2022-12-10T06:37:52;359.10;2329.60
55329;DHT22;41205;44.264;19.884;2022-12-10T06:40:18;359.10;2329.60
55329;DHT22;41205;44.264;19.884;2022-12-10T06:42:44;359.10;2329.60
55329;DHT22;41205;44.264;19.884;2022-12-10T06:45:10;359.10;2329.60
55329;DHT22;41205;44.264;19.884;2022-12-10T06:47:35;359.20;2329.60
55329;DHT22;41205;44.264;19.884;2022-12-10T06:50:01;359.20;2329.60
55329;DHT22;41205;44.264;19.884;2022-12-10T06:52:27;359.20;2329.60
55329;DHT22;41205;44.264;19.884;2022-12-10T06:54:52;359.20;2329.60
55329;DHT22;41205;44.264;19.884;2022-12-10T06:57:20;359.20;2329.60
55329;DHT22;41205;44.264;19.884;2022-12-10T06:59:46;359.30;2329.60
55329;DHT22;41205;44.264;19.884;2022-12-10T07:02:12;359.30;2329.60
55329;DHT22;41205;44.264;19.884;2022-12-10T07:04:38;359.30;2329.60
55329;DHT22;41205;44.264;19.884;2022-12-10T07:07:05;384.10;2329.60
55329;DHT22;41205;44.264;19.884;2022-12-10T07:09:32;384.10;2329.60
55329;DHT22;41205;44.264;19.884;2022-12-10T07:11:58;384.10;2329.60
55329;DHT22;41205;44.264;19.884;2022-12-10T07:14:23;384.10;2329.60
55329;DHT22;41205;44.264;19.884;2022-12-10T07:16:49;384.20;2329.60
55329;DHT22;41205;44.264;19.884;2022-12-10T07:19:15;384.20;2329.60
55329;DHT22;41205;44.264;19.884;2022-12-10T07:21:42;384.20;2329.60
55329;DHT22;41205;44.264;19.884;2022-12-10T07:24:13;384.20;2329.60
55329;DHT22;41205;44.264;19.884;2022-12-10T07:26:40;384.30;2329.60
55329;DHT22;41205;44.264;19.884;2022-12-10T07:29:09;384.20;2329.60
55329;DHT22;41205;44.264;19.884;2022-12-10T07:31:35;384.20;2329.60
55329;DHT22;41205;44.264;19.884;2022-12-10T07:34:01;384.30;2329.60
55329;DHT22;41205;44.264;19.884;2022-12-10T07:36:27;384.90;2329.60
55329;DHT22;41205;44.264;19.884;2022-12-10T07:38:54;384.40;2329.60
55329;DHT22;41205;44.264;19.884;2022-12-10T07:41:21;384.50;2329.60
55329;DHT22;41205;44.264;19.884;2022-12-10T07:43:47;384.70;2329.60
55329;DHT22;41205;44.264;19.884;2022-12-10T07:48:45;409.60;2355.20
55329;DHT22;41205;44.264;19.884;2022-12-10T07:51:11;409.70;2355.20
55329;DHT22;41205;44.264;19.884;2022-12-10T07:53:37;409.70;2355.20
55329;DHT22;41205;44.264;19.884;2022-12-10T07:56:04;409.70;2355.20
55329;DHT22;41205;44.264;19.884;2022-12-10T07:58:30;409.70;2355.20
55329;DHT22;41205;44.264;19.884;2022-12-10T08:00:55;409.80;2355.20
55329;DHT22;41205;44.264;19.884;2022-12-10T08:03:21;409.80;2355.20
55329;DHT22;41205;44.264;19.884;2022-12-10T08:05:47;409.90;2355.20
55329;DHT22;41205;44.264;19.884;2022-12-10T08:08:13;409.90;2355.20
55329;DHT22;41205;44.264;19.884;2022-12-10T08:10:39;410.00;2355.20
55329;DHT22;41205;44.264;19.884;2022-12-10T08:13:05;410.00;2355.20
55329;DHT22;41205;44.264;19.884;2022-12-10T08:15:32;410.00;2355.20
55329;DHT22;41205;44.264;19.884;2022-12-10T08:17:57;410.20;2355.20
55329;DHT22;41205;44.264;19.884;2022-12-10T08:20:24;410.20;2355.20
55329;DHT22;41205;44.264;19.884;2022-12-10T08:22:50;410.20;2355.20
55329;DHT22;41205;44.264;19.884;2022-12-10T08:25:16;410.20;2355.20
55329;DHT22;41205;44.264;19.884;2022-12-10T08:27:42;410.20;2355.20
55329;DHT22;41205;44.264;19.884;2022-12-10T08:30:08;410.00;2355.20
55329;DHT22;41205;44.264;19.884;2022-12-10T08:32:34;410.00;2355.20
55329;DHT22;41205;44.264;19.884;2022-12-10T08:35:00;410.00;2355.20
55329;DHT22;41205;44.264;19.884;2022-12-10T08:37:26;409.80;2355.20
55329;DHT22;41205;44.264;19.884;2022-12-10T08:39:52;409.60;2355.20
55329;DHT22;41205;44.264;19.884;2022-12-10T08:42:17;409.60;2355.20
55329;DHT22;41205;44.264;19.884;2022-12-10T08:44:43;409.60;2355.20
55329;DHT22;41205;44.264;19.884;2022-12-10T08:47:09;409.70;2355.20
55329;DHT22;41205;44.264;19.884;2022-12-10T08:49:35;409.60;2355.20
55329;DHT22;41205;44.264;19.884;2022-12-10T08:52:00;409.70;2355.20
55329;DHT22;41205;44.264;19.884;2022-12-10T08:54:26;409.60;2355.20
55329;DHT22;41205;44.264;19.884;2022-12-10T08:56:52;409.70;2355.20
55329;DHT22;41205;44.264;19.884;2022-12-10T08:59:19;409.70;2355.20
55329;DHT22;41205;44.264;19.884;2022-12-10T09:01:44;409.80;2355.20
55329;DHT22;41205;44.264;19.884;2022-12-10T09:04:10;410.00;2355.20
55329;DHT22;41205;44.264;19.884;2022-12-10T09:06:38;410.20;2355.20
55329;DHT22;41205;44.264;19.884;2022-12-10T09:09:03;410.30;2355.20
55329;DHT22;41205;44.264;19.884;2022-12-10T09:11:32;410.50;2355.20
55329;DHT22;41205;44.264;19.884;2022-12-10T09:13:59;435.30;2355.20
55329;DHT22;41205;44.264;19.884;2022-12-10T09:16:34;435.50;2355.20
55329;DHT22;41205;44.264;19.884;2022-12-10T09:19:00;435.70;2355.20
55329;DHT22;41205;44.264;19.884;2022-12-10T09:21:26;435.60;2355.20
55329;DHT22;41205;44.264;19.884;2022-12-10T09:23:52;435.40;2355.20
55329;DHT22;41205;44.264;19.884;2022-12-10T09:26:19;436.10;2355.20
55329;DHT22;41205;44.264;19.884;2022-12-10T09:28:45;461.20;2380.80
55329;DHT22;41205;44.264;19.884;2022-12-10T09:31:12;461.60;2380.80
55329;DHT22;41205;44.264;19.884;2022-12-10T09:33:39;461.70;2380.80
55329;DHT22;41205;44.264;19.884;2022-12-10T09:36:06;461.50;2380.80
55329;DHT22;41205;44.264;19.884;2022-12-10T09:38:40;461.20;2380.80
55329;DHT22;41205;44.264;19.884;2022-12-10T09:46:53;461.00;2380.80
55329;DHT22;41205;44.264;19.884;2022-12-10T09:52:02;436.00;2355.20
55329;DHT22;41205;44.264;19.884;2022-12-10T09:54:32;435.90;2355.20
55329;DHT22;41205;44.264;19.884;2022-12-10T09:56:59;435.90;2355.20
55329;DHT22;41205;44.264;19.884;2022-12-10T09:59:39;435.90;2355.20
55329;DHT22;41205;44.264;19.884;2022-12-10T10:04:51;436.00;2355.20
55329;DHT22;41205;44.264;19.884;2022-12-10T10:07:25;436.10;2355.20
55329;DHT22;41205;44.264;19.884;2022-12-10T10:10:31;436.10;2355.20
55329;DHT22;41205;44.264;19.884;2022-12-10T10:15:45;460.80;2380.80
55329;DHT22;41205;44.264;19.884;2022-12-10T10:20:39;436.10;2355.20
55329;DHT22;41205;44.264;19.884;2022-12-10T10:23:05;460.90;2380.80
55329;DHT22;41205;44.264;19.884;2022-12-10T10:25:31;460.80;2380.80
55329;DHT22;41205;44.264;19.884;2022-12-10T10:27:58;460.90;2380.80
55329;DHT22;41205;44.264;19.884;2022-12-10T10:30:23;460.90;2380.80
55329;DHT22;41205;44.264;19.884;2022-12-10T10:32:55;460.80;2380.80
55329;DHT22;41205;44.264;19.884;2022-12-10T10:35:22;461.00;2380.80
55329;DHT22;41205;44.264;19.884;2022-12-10T10:37:48;461.30;2380.80
55329;DHT22;41205;44.264;19.884;2022-12-10T10:40:26;461.50;2380.80
55329;DHT22;41205;44.264;19.884;2022-12-10T10:42:56;461.70;2380.80
55329;DHT22;41205;44.264;19.884;2022-12-10T10:45:41;461.70;2380.80
55329;DHT22;41205;44.264;19.884;2022-12-10T10:48:19;461.40;2380.80
55329;DHT22;41205;44.264;19.884;2022-12-10T10:51:05;461.30;2380.80
55329;DHT22;41205;44.264;19.884;2022-12-10T10:58:36;461.40;2380.80
55329;DHT22;41205;44.264;19.884;2022-12-10T11:01:11;461.40;2380.80
55329;DHT22;41205;44.264;19.884;2022-12-10T11:03:37;461.40;2380.80
55329;DHT22;41205;44.264;19.884;2022-12-10T11:06:12;461.50;2380.80
55329;DHT22;41205;44.264;19.884;2022-12-10T11:08:38;461.40;2380.80
55329;DHT22;41205;44.264;19.884;2022-12-10T11:11:11;461.40;2380.80
55329;DHT22;41205;44.264;19.884;2022-12-10T11:13:38;461.40;2380.80
55329;DHT22;41205;44.264;19.884;2022-12-10T11:16:23;461.60;2380.80
55329;DHT22;41205;44.264;19.884;2022-12-10T11:19:02;461.70;2380.80
55329;DHT22;41205;44.264;19.884;2022-12-10T11:21:33;461.50;2380.80
55329;DHT22;41205;44.264;19.884;2022-12-10T11:24:11;461.50;2380.80
55329;DHT22;41205;44.264;19.884;2022-12-10T11:29:30;486.50;2380.80
55329;DHT22;41205;44.264;19.884;2022-12-10T11:35:01;486.50;2380.80
55329;DHT22;41205;44.264;19.884;2022-12-10T11:37:36;486.50;2380.80
55329;DHT22;41205;44.264;19.884;2022-12-10T11:45:46;486.80;2380.80
55329;DHT22;41205;44.264;19.884;2022-12-10T11:48:34;486.50;2380.80
55329;DHT22;41205;44.264;19.884;2022-12-10T11:51:18;486.50;2380.80
55329;DHT22;41205;44.264;19.884;2022-12-10T11:54:12;486.60;2380.80
55329;DHT22;41205;44.264;19.884;2022-12-10T11:56:49;486.70;2380.80
55329;DHT22;41205;44.264;19.884;2022-12-10T11:59:58;486.60;2380.80
55329;DHT22;41205;44.264;19.884;2022-12-10T12:16:07;486.70;2380.80
55329;DHT22;41205;44.264;19.884;2022-12-10T12:21:14;486.70;2380.80
55329;DHT22;41205;44.264;19.884;2022-12-10T12:26:29;486.50;2380.80
55329;DHT22;41205;44.264;19.884;2022-12-10T12:29:20;486.50;2380.80
55329;DHT22;41205;44.264;19.884;2022-12-10T12:31:54;486.50;2380.80
55329;DHT22;41205;44.264;19.884;2022-12-10T12:34:45;486.40;2380.80
55329;DHT22;41205;44.264;19.884;2022-12-10T12:37:16;461.70;2380.80
55329;DHT22;41205;44.264;19.884;2022-12-10T12:42:18;461.50;2380.80
55329;DHT22;41205;44.264;19.884;2022-12-10T12:45:11;461.40;2380.80
55329;DHT22;41205;44.264;19.884;2022-12-10T12:52:53;461.30;2380.80
55329;DHT22;41205;44.264;19.884;2022-12-10T12:55:28;461.30;2380.80
55329;DHT22;41205;44.264;19.884;2022-12-10T13:00:50;461.20;2380.80
55329;DHT22;41205;44.264;19.884;2022-12-10T13:03:24;461.20;2380.80
55329;DHT22;41205;44.264;19.884;2022-12-10T13:05:53;461.10;2380.80
55329;DHT22;41205;44.264;19.884;2022-12-10T13:22:06;461.00;2380.80
55329;DHT22;41205;44.264;19.884;2022-12-10T13:46:34;436.10;2355.20
55329;DHT22;41205;44.264;19.884;2022-12-10T13:49:05;436.10;2355.20
55329;DHT22;41205;44.264;19.884;2022-12-10T13:51:55;436.10;2355.20
55329;DHT22;41205;44.264;19.884;2022-12-10T13:59:46;436.10;2355.20
55329;DHT22;41205;44.264;19.884;2022-12-10T14:05:10;436.10;2355.20
55329;DHT22;41205;44.264;19.884;2022-12-10T14:07:42;460.80;2380.80
55329;DHT22;41205;44.264;19.884;2022-12-10T14:10:14;436.10;2355.20
55329;DHT22;41205;44.264;19.884;2022-12-10T14:12:41;436.10;2355.20
55329;DHT22;41205;44.264;19.884;2022-12-10T14:17:42;435.90;2355.20
55329;DHT22;41205;44.264;19.884;2022-12-10T14:20:14;435.90;2355.20
55329;DHT22;41205;44.264;19.884;2022-12-10T14:22:45;435.80;2355.20
55329;DHT22;41205;44.264;19.884;2022-12-10T14:25:15;435.90;2355.20
55329;DHT22;41205;44.264;19.884;2022-12-10T14:27:41;435.80;2355.20
55329;DHT22;41205;44.264;19.884;2022-12-10T14:30:20;435.80;2355.20
55329;DHT22;41205;44.264;19.884;2022-12-10T14:32:47;435.80;2355.20
55329;DHT22;41205;44.264;19.884;2022-12-10T14:35:19;435.60;2355.20
55329;DHT22;41205;44.264;19.884;2022-12-10T14:37:47;435.60;2355.20
55329;DHT22;41205;44.264;19.884;2022-12-10T14:42:59;435.60;2355.20
55329;DHT22;41205;44.264;19.884;2022-12-10T14:45:36;435.60;2355.20
55329;DHT22;41205;44.264;19.884;2022-12-10T14:48:04;435.50;2355.20
55329;DHT22;41205;44.264;19.884;2022-12-10T14:50:32;435.50;2355.20
55329;DHT22;41205;44.264;19.884;2022-12-10T14:53:00;435.50;2355.20
55329;DHT22;41205;44.264;19.884;2022-12-10T14:55:26;435.40;2355.20
55329;DHT22;41205;44.264;19.884;2022-12-10T14:58:00;435.30;2355.20
55329;DHT22;41205;44.264;19.884;2022-12-10T15:00:27;435.30;2355.20
55329;DHT22;41205;44.264;19.884;2022-12-10T15:02:59;435.30;2355.20
55329;DHT22;41205;44.264;19.884;2022-12-10T15:05:30;435.30;2355.20
55329;DHT22;41205;44.264;19.884;2022-12-10T15:08:11;435.30;2355.20
55329;DHT22;41205;44.264;19.884;2022-12-10T15:10:44;435.30;2355.20
55329;DHT22;41205;44.264;19.884;2022-12-10T15:13:24;435.20;2355.20
55329;DHT22;41205;44.264;19.884;2022-12-10T15:15:53;410.50;2355.20
55329;DHT22;41205;44.264;19.884;2022-12-10T15:18:37;410.50;2355.20
55329;DHT22;41205;44.264;19.884;2022-12-10T15:21:21;410.50;2355.20
55329;DHT22;41205;44.264;19.884;2022-12-10T15:23:47;410.30;2355.20
55329;DHT22;41205;44.264;19.884;2022-12-10T15:26:27;410.30;2355.20
55329;DHT22;41205;44.264;19.884;2022-12-10T15:31:49;410.20;2355.20
55329;DHT22;41205;44.264;19.884;2022-12-10T15:34:15;410.10;2355.20
55329;DHT22;41205;44.264;19.884;2022-12-10T15:36:51;410.10;2355.20
55329;DHT22;41205;44.264;19.884;2022-12-10T15:39:20;410.20;2355.20
55329;DHT22;41205;44.264;19.884;2022-12-10T15:42:00;410.00;2355.20
55329;DHT22;41205;44.264;19.884;2022-12-10T15:47:18;410.00;2355.20
55329;DHT22;41205;44.264;19.884;2022-12-10T15:49:45;410.00;2355.20
55329;DHT22;41205;44.264;19.884;2022-12-10T15:52:26;410.00;2355.20
55329;DHT22;41205;44.264;19.884;2022-12-10T15:54:54;410.00;2355.20
55329;DHT22;41205;44.264;19.884;2022-12-10T15:57:28;410.00;2355.20
55329;DHT22;41205;44.264;19.884;2022-12-10T15:59:57;410.00;2355.20
55329;DHT22;41205;44.264;19.884;2022-12-10T16:04:54;410.10;2355.20
55329;DHT22;41205;44.264;19.884;2022-12-10T16:07:20;410.20;2355.20
55329;DHT22;41205;44.264;19.884;2022-12-10T16:09:46;410.20;2355.20
55329;DHT22;41205;44.264;19.884;2022-12-10T16:12:13;410.20;2355.20
55329;DHT22;41205;44.264;19.884;2022-12-10T16:14:51;410.20;2355.20
55329;DHT22;41205;44.264;19.884;2022-12-10T16:17:18;410.20;2355.20
55329;DHT22;41205;44.264;19.884;2022-12-10T16:19:44;410.20;2355.20
55329;DHT22;41205;44.264;19.884;2022-12-10T16:22:10;410.30;2355.20
55329;DHT22;41205;44.264;19.884;2022-12-10T16:24:36;410.30;2355.20
55329;DHT22;41205;44.264;19.884;2022-12-10T16:27:10;410.30;2355.20
55329;DHT22;41205;44.264;19.884;2022-12-10T16:29:37;410.30;2355.20
55329;DHT22;41205;44.264;19.884;2022-12-10T16:32:02;410.30;2355.20
55329;DHT22;41205;44.264;19.884;2022-12-10T16:34:28;410.50;2355.20
55329;DHT22;41205;44.264;19.884;2022-12-10T16:36:54;410.50;2355.20
55329;DHT22;41205;44.264;19.884;2022-12-10T16:39:19;410.50;2355.20
55329;DHT22;41205;44.264;19.884;2022-12-10T16:41:51;410.30;2355.20
55329;DHT22;41205;44.264;19.884;2022-12-10T16:44:18;410.30;2355.20
55329;DHT22;41205;44.264;19.884;2022-12-10T16:46:43;410.50;2355.20
55329;DHT22;41205;44.264;19.884;2022-12-10T16:49:09;410.40;2355.20
55329;DHT22;41205;44.264;19.884;2022-12-10T16:51:35;410.30;2355.20
55329;DHT22;41205;44.264;19.884;2022-12-10T16:54:01;410.20;2355.20
55329;DHT22;41205;44.264;19.884;2022-12-10T16:56:29;410.30;2355.20
55329;DHT22;41205;44.264;19.884;2022-12-10T16:58:54;410.30;2355.20
55329;DHT22;41205;44.264;19.884;2022-12-10T17:01:23;410.20;2355.20
55329;DHT22;41205;44.264;19.884;2022-12-10T17:03:50;410.20;2355.20
55329;DHT22;41205;44.264;19.884;2022-12-10T17:06:17;410.10;2355.20
55329;DHT22;41205;44.264;19.884;2022-12-10T17:08:44;409.80;2355.20
55329;DHT22;41205;44.264;19.884;2022-12-10T17:11:24;384.70;2329.60
55329;DHT22;41205;44.264;19.884;2022-12-10T17:14:27;384.50;2329.60